Time;durP1;ratioP1;P1;durP2;ratioP2;P2;SDS_P1;SDS_P2;PMS_P1;PMS_P2;Temp;Humidity;BMP_temperature;BMP_pressure;BME280_temperature;BME280_humidity;BME280_pressure;Samples;Min_cycle;Max_cycle;Signal;HPM_P1;HPM_P2
2023/03/18 00:05:17;;;;;;;19.8;10.9;;;;;;;-0.2;70.5;98970;;;;
2023/03/18 00:15:17;;;;;;;19.8;10.9;;;;;;;-0.4;70.4;98960;;;;
2023/03/18 00:25:16;;;;;;;19.8;10.9;;;;;;;-0.6;70.2;98960;;;;
2023/03/18 00:36:17;;;;;;;21.5;12.1;;;;;;;-0.7;70.3;98970;;;;
2023/03/18 00:46:16;;;;;;;21.5;12.1;;;;;;;-0.8;71;98960;;;;
2023/03/18 00:57:17;;;;;;;19.8;10.8;;;;;;;-0.9;71.6;98960;;;;
2023/03/18 01:08:16;;;;;;;19.8;10.8;;;;;;;-1;71.7;98950;;;;
2023/03/18 01:18:16;;;;;;;19.8;10.8;;;;;;;-0.9;74.6;98940;;;;
2023/03/18 01:28:16;;;;;;;19;10.9;;;;;;;-1;74.2;98930;;;;
2023/03/18 01:39:16;;;;;;;19;10.9;;;;;;;-1;73.5;98930;;;;
2023/03/18 01:49:17;;;;;;;19;10.9;;;;;;;-1.1;73.8;98930;;;;
2023/03/18 02:00:16;;;;;;;17.4;10.6;;;;;;;-1.2;73.9;98920;;;;
2023/03/18 02:10:17;;;;;;;17.4;10.6;;;;;;;-1.3;73.5;98920;;;;
2023/03/18 02:21:16;;;;;;;17.4;10.6;;;;;;;-1.4;73.9;98920;;;;
2023/03/18 02:31:16;;;;;;;20;10.1;;;;;;;-1.5;73.9;98920;;;;
2023/03/18 02:41:17;;;;;;;20;10.1;;;;;;;-1.6;74;98920;;;;
2023/03/18 02:52:16;;;;;;;20;10.1;;;;;;;-1.7;75;98920;;;;
2023/03/18 03:02:16;;;;;;;18;11.4;;;;;;;-1.7;76.3;98910;;;;
2023/03/18 03:12:16;;;;;;;18;11.4;;;;;;;-1.8;75.9;98920;;;;
2023/03/18 03:22:17;;;;;;;18;11.4;;;;;;;-1.8;76.5;98910;;;;
2023/03/18 03:33:16;;;;;;;22.2;12.9;;;;;;;-1.8;77.2;98910;;;;
2023/03/18 03:44:16;;;;;;;22.2;12.9;;;;;;;-1.8;76.8;98910;;;;
2023/03/18 03:55:17;;;;;;;19.3;11.2;;;;;;;-1.8;77.1;98910;;;;
2023/03/18 04:06:16;;;;;;;19.3;11.2;;;;;;;-1.9;76.8;98910;;;;
2023/03/18 04:17:16;;;;;;;19.3;11.2;;;;;;;-1.9;77.1;98910;;;;
2023/03/18 04:28:17;;;;;;;17.7;10.5;;;;;;;-2;77.2;98920;;;;
2023/03/18 04:39:16;;;;;;;17.7;10.5;;;;;;;-2;77.7;98920;;;;
2023/03/18 04:49:16;;;;;;;17.7;10.5;;;;;;;-2.1;77.7;98930;;;;
2023/03/18 05:00:17;;;;;;;14.6;9.6;;;;;;;-2;78.4;98940;;;;
2023/03/18 05:11:16;;;;;;;14.6;9.6;;;;;;;-2;78;98940;;;;
2023/03/18 05:21:16;;;;;;;14.6;9.6;;;;;;;-1.8;77.7;98940;;;;
2023/03/18 05:32:16;;;;;;;14.3;8.2;;;;;;;-1.6;77.3;98950;;;;
2023/03/18 05:43:16;;;;;;;14.3;8.2;;;;;;;-1.3;77;98950;;;;
2023/03/18 05:54:16;;;;;;;14.3;8.2;;;;;;;-1;76.8;98950;;;;
2023/03/18 06:04:18;;;;;;;16;8.7;;;;;;;-0.8;76.5;98950;;;;
2023/03/18 06:15:17;;;;;;;16;8.7;;;;;;;-0.2;75.9;98950;;;;
2023/03/18 06:25:17;;;;;;;19.3;11.2;;;;;;;0.4;74.6;98950;;;;
2023/03/18 06:35:17;;;;;;;19.3;11.2;;;;;;;0.9;73.5;98960;;;;
2023/03/18 06:45:16;;;;;;;19.3;11.2;;;;;;;1.5;71.3;98970;;;;
2023/03/18 06:56:16;;;;;;;16.4;9.9;;;;;;;2;69.5;98970;;;;
2023/03/18 07:06:17;;;;;;;16.4;9.9;;;;;;;2.5;68.1;98970;;;;
2023/03/18 07:17:17;;;;;;;16.4;9.9;;;;;;;3.2;67.4;98980;;;;
2023/03/18 07:27:16;;;;;;;18.7;11.4;;;;;;;3.7;66;98980;;;;
2023/03/18 07:38:17;;;;;;;18.7;11.4;;;;;;;4.3;65.2;98980;;;;
2023/03/18 07:48:16;;;;;;;18.7;11.4;;;;;;;4.9;63.6;98990;;;;
2023/03/18 07:58:17;;;;;;;21.5;11.3;;;;;;;5.5;62.8;99000;;;;
2023/03/18 08:09:17;;;;;;;21.5;11.3;;;;;;;6;59.9;99000;;;;
2023/03/18 08:19:17;;;;;;;21.5;11.3;;;;;;;6.6;58.5;99000;;;;
2023/03/18 08:30:17;;;;;;;16.1;11.2;;;;;;;7.2;56.2;99010;;;;
2023/03/18 08:41:17;;;;;;;16.1;11.2;;;;;;;7.8;55.3;99010;;;;
2023/03/18 08:52:17;;;;;;;16.1;11.2;;;;;;;8.3;53;98990;;;;
2023/03/18 09:02:17;;;;;;;19.1;12.6;;;;;;;8.7;51.6;99000;;;;
2023/03/18 09:13:17;;;;;;;19.1;12.6;;;;;;;9.3;50.1;98990;;;;
2023/03/18 09:23:17;;;;;;;19.1;12.6;;;;;;;9.7;50.1;98990;;;;
2023/03/18 09:34:17;;;;;;;17.1;11.4;;;;;;;10.3;47.3;98980;;;;
2023/03/18 09:44:17;;;;;;;17.1;11.4;;;;;;;10.9;46.6;98980;;;;
2023/03/18 09:54:18;;;;;;;14.6;9;;;;;;;11.2;42;98970;;;;
2023/03/18 10:04:17;;;;;;;14.6;9;;;;;;;11.3;42.4;98960;;;;
2023/03/18 10:15:17;;;;;;;14.6;9;;;;;;;12;38.5;98950;;;;
2023/03/18 10:25:17;;;;;;;10;7;;;;;;;12.1;37.5;98940;;;;
2023/03/18 10:36:17;;;;;;;10;7;;;;;;;12.8;37.6;98930;;;;
2023/03/18 10:46:17;;;;;;;10;7;;;;;;;12.9;35.5;98920;;;;
2023/03/18 10:56:17;;;;;;;12.6;6.9;;;;;;;13;34.6;98910;;;;
2023/03/18 11:07:17;;;;;;;12.6;6.9;;;;;;;13.3;34.9;98910;;;;
2023/03/18 11:17:17;;;;;;;12.6;6.9;;;;;;;13.5;34.6;98900;;;;
2023/03/18 11:27:17;;;;;;;11.9;7.7;;;;;;;13.7;34.4;98890;;;;
2023/03/18 11:38:17;;;;;;;11.9;7.7;;;;;;;14.3;34.6;98870;;;;
2023/03/18 11:49:17;;;;;;;11.9;7.7;;;;;;;14.4;34.2;98850;;;;
2023/03/18 11:59:17;;;;;;;14.2;7.8;;;;;;;14.6;33.4;98840;;;;
2023/03/18 12:10:18;;;;;;;14.2;7.8;;;;;;;14.7;33.4;98830;;;;
2023/03/18 12:20:17;;;;;;;14.2;7.8;;;;;;;14.8;34.2;98820;;;;
2023/03/18 12:30:18;;;;;;;11.4;7.9;;;;;;;14.9;33.5;98810;;;;
2023/03/18 12:41:17;;;;;;;11.4;7.9;;;;;;;14.8;33.9;98810;;;;
2023/03/18 12:51:17;;;;;;;11.4;7.9;;;;;;;14.9;34;98800;;;;
2023/03/18 13:01:17;;;;;;;13;8.4;;;;;;;14.9;34.5;98800;;;;
2023/03/18 13:12:17;;;;;;;9.8;8.4;;;;;;;15.1;34.9;98790;;;;
2023/03/18 13:23:17;;;;;;;9.8;8.4;;;;;;;15.1;35;98790;;;;
2023/03/18 13:33:17;;;;;;;9.8;8.4;;;;;;;15.1;34.4;98790;;;;
2023/03/18 13:43:17;;;;;;;19.3;14.3;;;;;;;15.1;34.2;98780;;;;
2023/03/18 13:53:17;;;;;;;19.3;14.3;;;;;;;15.3;34.4;98760;;;;
2023/03/18 14:03:17;;;;;;;19.3;14.3;;;;;;;15.3;33.7;98760;;;;
2023/03/18 14:13:17;;;;;;;11.7;7.8;;;;;;;15.7;33;98740;;;;
2023/03/18 14:24:18;;;;;;;11.7;7.8;;;;;;;15.8;33.7;98740;;;;
2023/03/18 14:34:17;;;;;;;10.8;7.6;;;;;;;15.9;33;98730;;;;
2023/03/18 14:44:19;;;;;;;10.8;7.6;;;;;;;15.9;32.5;98720;;;;
2023/03/18 14:54:17;;;;;;;10.8;7.6;;;;;;;15.9;33;98720;;;;
2023/03/18 15:05:17;;;;;;;11.5;7;;;;;;;15.6;32.3;98720;;;;
2023/03/18 15:16:17;;;;;;;11.5;7;;;;;;;15.5;33.9;98720;;;;
2023/03/18 15:26:17;;;;;;;11.5;7;;;;;;;15.2;33.6;98730;;;;
2023/03/18 15:36:17;;;;;;;12.6;8.5;;;;;;;15.7;33.1;98720;;;;
2023/03/18 15:46:17;;;;;;;12.6;8.5;;;;;;;16.9;31.6;98730;;;;
2023/03/18 15:57:17;;;;;;;12.6;8.5;;;;;;;17.5;31.2;98740;;;;
2023/03/18 16:07:17;;;;;;;8.7;6;;;;;;;17.7;30.9;98740;;;;
2023/03/18 16:18:17;;;;;;;8.7;6;;;;;;;16.4;32;98760;;;;
2023/03/18 16:28:18;;;;;;;8.7;6;;;;;;;15.2;34.1;98770;;;;
2023/03/18 16:39:17;;;;;;;11.2;7.9;;;;;;;14.1;35.4;98770;;;;
2023/03/18 16:49:17;;;;;;;11.2;7.9;;;;;;;13;37.1;98770;;;;
2023/03/18 16:59:17;;;;;;;11.2;7.9;;;;;;;12.1;38.7;98770;;;;
2023/03/18 17:10:17;;;;;;;17.2;9.7;;;;;;;11.1;39.8;98780;;;;
2023/03/18 17:20:17;;;;;;;17.2;9.7;;;;;;;10.5;41.8;98790;;;;
2023/03/18 17:31:19;;;;;;;17.2;9.7;;;;;;;9.6;43.8;98800;;;;
2023/03/18 17:42:17;;;;;;;16.3;10.3;;;;;;;9;44.5;98800;;;;
2023/03/18 17:52:18;;;;;;;16.3;10.3;;;;;;;8.6;46.4;98800;;;;
2023/03/18 18:03:17;;;;;;;16.3;10.3;;;;;;;8.2;48.1;98800;;;;
2023/03/18 18:13:17;;;;;;;14.6;7.7;;;;;;;7.9;49.3;98790;;;;
2023/03/18 18:24:17;;;;;;;14.6;7.7;;;;;;;7.8;50;98790;;;;
2023/03/18 18:35:17;;;;;;;25.4;14.5;;;;;;;7.6;52;98790;;;;
2023/03/18 18:45:17;;;;;;;25.4;14.5;;;;;;;7.4;51.9;98800;;;;
2023/03/18 18:55:17;;;;;;;25.4;14.5;;;;;;;7.2;53.2;98810;;;;
2023/03/18 19:05:17;;;;;;;23.5;13.5;;;;;;;6.9;53.7;98820;;;;
2023/03/18 19:15:20;;;;;;;23.5;13.5;;;;;;;6.7;54;98820;;;;
2023/03/18 19:25:17;;;;;;;23.5;13.5;;;;;;;6.5;53.9;98820;;;;
2023/03/18 19:36:17;;;;;;;29.8;17.5;;;;;;;6.3;55.2;98830;;;;
2023/03/18 19:46:17;;;;;;;29.8;17.5;;;;;;;6;55.8;98830;;;;
2023/03/18 19:56:17;;;;;;;29.8;17.5;;;;;;;5.9;56.1;98830;;;;
2023/03/18 20:06:17;;;;;;;34.3;23;;;;;;;5.7;57.1;98860;;;;
2023/03/18 20:16:18;;;;;;;34.3;23;;;;;;;5.4;57.2;98860;;;;
2023/03/18 20:27:17;;;;;;;34.3;23;;;;;;;5.1;59.1;98860;;;;
2023/03/18 20:38:17;;;;;;;31.3;21.3;;;;;;;4.8;61.4;98870;;;;
2023/03/18 20:48:17;;;;;;;31.3;21.3;;;;;;;4.5;62;98870;;;;
2023/03/18 20:58:17;;;;;;;31.3;21.3;;;;;;;4.2;62.5;98880;;;;
2023/03/18 21:09:17;;;;;;;42.1;28;;;;;;;4.1;64;98890;;;;
2023/03/18 21:19:17;;;;;;;42.1;28;;;;;;;4.5;62.4;98890;;;;
2023/03/18 21:30:17;;;;;;;42.1;28;;;;;;;4.6;61.5;98890;;;;
2023/03/18 21:40:17;;;;;;;34.3;21.6;;;;;;;4.6;61.5;98900;;;;
2023/03/18 21:51:17;;;;;;;;;;;;;;;4.5;61.2;98900;;;;
2023/03/18 22:01:17;;;;;;;33.7;21.8;;;;;;;4.5;60.6;98890;;;;
2023/03/18 22:11:17;;;;;;;33.7;21.8;;;;;;;4.4;61.2;98890;;;;
2023/03/18 22:21:17;;;;;;;33.7;21.8;;;;;;;4.5;59.5;98890;;;;
2023/03/18 22:32:17;;;;;;;41.2;23.8;;;;;;;4.3;59.3;98890;;;;
2023/03/18 22:43:17;;;;;;;41.2;23.8;;;;;;;4.2;58.4;98900;;;;
2023/03/18 22:53:17;;;;;;;31.9;16.9;;;;;;;4;59.4;98900;;;;
2023/03/18 23:03:17;;;;;;;20.9;13.5;;;;;;;3.8;58.6;98900;;;;
2023/03/18 23:13:17;;;;;;;20.9;13.5;;;;;;;3.7;58.1;98900;;;;
2023/03/18 23:23:17;;;;;;;20.9;13.5;;;;;;;3.7;56.5;98910;;;;
2023/03/18 23:34:17;;;;;;;26.7;17;;;;;;;3.3;61.2;98920;;;;
2023/03/18 23:44:17;;;;;;;26.7;17;;;;;;;2.9;62.1;98920;;;;
2023/03/18 23:54:17;;;;;;;26.7;17;;;;;;;2.7;61.1;98910;;;;
